createdAt,value
2023-01-19T00:03:28.652Z,95.55
2023-01-19T00:08:31.224Z,95.88
2023-01-19T00:13:33.858Z,95.84
2023-01-19T00:18:36.402Z,95.87
2023-01-19T00:23:39.171Z,96.31
2023-01-19T00:28:42.438Z,96.04
2023-01-19T00:33:48.900Z,96.11
2023-01-19T00:38:51.532Z,96.70
2023-01-19T00:43:54.135Z,96.80
2023-01-19T00:48:56.681Z,97.07
2023-01-19T00:54:05.072Z,96.73
2023-01-19T00:59:07.737Z,96.48
2023-01-19T01:04:12.274Z,97.14
2023-01-19T01:09:14.848Z,96.91
2023-01-19T01:14:17.717Z,96.80
2023-01-19T01:19:21.488Z,97.09
2023-01-19T01:24:24.198Z,96.76
2023-01-19T01:29:26.828Z,97.26
2023-01-19T01:34:29.403Z,96.88
2023-01-19T01:39:31.953Z,97.39
2023-01-19T01:44:51.725Z,96.62
2023-01-19T01:50:00.725Z,96.76
2023-01-19T01:55:07.239Z,97.18
2023-01-19T02:00:11.341Z,96.83
2023-01-19T02:05:19.247Z,97.33
2023-01-19T02:10:40.266Z,97.92
2023-01-19T02:15:42.818Z,97.56
2023-01-19T02:21:07.652Z,97.46
2023-01-19T02:26:14.312Z,97.23
2023-01-19T02:31:17.805Z,97.20
2023-01-19T02:36:26.017Z,97.86
2023-01-19T02:41:34.649Z,98.05
2023-01-19T02:46:38.451Z,97.69
2023-01-19T02:51:44.216Z,97.68
2023-01-19T02:56:53.246Z,97.55
2023-01-19T03:02:23.367Z,97.58
2023-01-19T03:07:47.096Z,98.06
2023-01-19T03:13:22.705Z,97.58
2023-01-19T03:18:29.809Z,97.85
2023-01-19T03:23:34.806Z,97.62
2023-01-19T03:28:40.280Z,98.06
2023-01-19T03:33:49.522Z,97.89
2023-01-19T03:38:53.535Z,97.71
2023-01-19T03:43:57.859Z,97.64
2023-01-19T03:49:00.784Z,98.23
2023-01-19T03:54:05.679Z,98.66
2023-01-19T03:59:08.251Z,98.49
2023-01-19T04:04:10.805Z,97.81
2023-01-19T04:09:13.626Z,97.83
2023-01-19T04:14:16.211Z,98.28
2023-01-19T04:19:18.865Z,98.22
2023-01-19T04:24:22.113Z,98.26
2023-01-19T04:29:25.316Z,98.06
2023-01-19T04:34:27.941Z,98.25
2023-01-19T04:39:31.110Z,98.27
2023-01-19T04:44:33.819Z,98.26
2023-01-19T04:49:39.367Z,98.73
2023-01-19T04:54:41.924Z,98.14
2023-01-19T04:59:44.620Z,98.48
2023-01-19T05:04:47.150Z,98.26
2023-01-19T05:09:49.816Z,98.92
2023-01-19T05:14:52.384Z,99.05
2023-01-19T05:19:54.985Z,98.86
2023-01-19T05:24:58.113Z,99.25
2023-01-19T05:30:05.046Z,99.60
2023-01-19T05:35:08.248Z,99.68
2023-01-19T05:40:11.715Z,99.26
2023-01-19T05:45:15.553Z,100.00
2023-01-19T05:50:18.160Z,99.85
2023-01-19T05:55:21.198Z,100.00
2023-01-19T06:00:24.680Z,99.67
2023-01-19T06:05:27.520Z,100.00
2023-01-19T06:10:30.108Z,100.00
2023-01-19T06:15:32.672Z,99.75
2023-01-19T06:20:36.444Z,100.00
2023-01-19T06:25:39.257Z,100.00
2023-01-19T06:30:41.895Z,100.00
2023-01-19T06:35:48.882Z,100.00
2023-01-19T06:41:02.838Z,100.00
2023-01-19T06:46:06.158Z,100.00
2023-01-19T06:51:08.689Z,100.00
2023-01-19T06:56:11.374Z,100.00
2023-01-19T07:01:14.498Z,100.00
2023-01-19T07:06:17.081Z,100.00
2023-01-19T07:11:24.773Z,100.00
2023-01-19T07:16:32.707Z,100.00
2023-01-19T07:21:35.326Z,100.00
2023-01-19T07:26:37.954Z,99.99
2023-01-19T07:31:40.544Z,100.00
2023-01-19T07:36:44.173Z,99.99
2023-01-19T07:41:48.815Z,99.90
2023-01-19T07:46:51.439Z,99.87
2023-01-19T07:51:56.380Z,99.96
2023-01-19T07:57:00.702Z,99.93
2023-01-19T08:02:03.488Z,99.89
2023-01-19T08:07:07.743Z,99.25
2023-01-19T08:12:10.290Z,99.48
2023-01-19T08:17:14.108Z,99.25
2023-01-19T08:22:16.769Z,99.41
2023-01-19T08:27:19.281Z,99.29
2023-01-19T08:32:21.886Z,99.84
2023-01-19T08:37:24.906Z,99.51
2023-01-19T08:42:28.193Z,99.17
2023-01-19T08:47:30.831Z,99.47
2023-01-19T08:52:33.467Z,98.77
2023-01-19T08:57:36.183Z,98.72
2023-01-19T09:02:38.768Z,99.23
2023-01-19T09:07:41.860Z,98.59
2023-01-19T09:12:45.144Z,98.55
2023-01-19T09:17:47.742Z,98.62
2023-01-19T09:22:50.401Z,98.63
2023-01-19T09:27:53.211Z,98.55
2023-01-19T09:32:55.771Z,98.28
2023-01-19T09:37:59.204Z,97.98
2023-01-19T09:43:22.801Z,98.11
2023-01-19T09:48:57.904Z,98.11
2023-01-19T09:54:06.570Z,97.70
2023-01-19T09:59:30.392Z,97.79
2023-01-19T10:04:54.641Z,97.92
2023-01-19T10:10:03.226Z,98.00
2023-01-19T10:15:37.744Z,97.98
2023-01-19T10:21:11.973Z,97.62
2023-01-19T10:26:23.503Z,97.40
2023-01-19T10:31:26.219Z,97.20
2023-01-19T10:36:39.966Z,97.29
2023-01-19T10:41:53.739Z,96.88
2023-01-19T10:46:58.834Z,96.94
2023-01-19T10:52:02.563Z,96.84
2023-01-19T10:57:09.280Z,96.69
2023-01-19T11:02:31.674Z,96.28
2023-01-19T11:07:35.142Z,96.37
2023-01-19T11:12:45.987Z,96.39
2023-01-19T11:17:50.433Z,96.06
2023-01-19T11:23:05.704Z,96.04
2023-01-19T11:28:20.843Z,95.84
2023-01-19T11:33:50.576Z,96.17
2023-01-19T11:38:56.137Z,96.56
2023-01-19T11:44:12.115Z,96.19
2023-01-19T11:49:27.539Z,95.85
2023-01-19T11:54:36.137Z,96.42
2023-01-19T11:59:38.701Z,96.59
2023-01-19T12:04:44.586Z,96.48
2023-01-19T12:09:53.178Z,96.27
2023-01-19T12:15:08.786Z,96.43
2023-01-19T12:20:35.599Z,96.25
2023-01-19T12:25:53.952Z,96.48
2023-01-19T12:30:59.748Z,96.08
2023-01-19T12:36:17.395Z,96.27
2023-01-19T12:41:19.864Z,96.35
2023-01-19T12:46:30.299Z,96.42
2023-01-19T12:51:33.409Z,95.98
2023-01-19T12:56:38.676Z,96.34
2023-01-19T13:01:41.315Z,95.61
2023-01-19T13:06:49.897Z,96.19
2023-01-19T13:12:21.397Z,96.25
2023-01-19T13:17:28.556Z,96.19
2023-01-19T13:22:51.378Z,95.49
2023-01-19T13:27:57.088Z,96.09
2023-01-19T13:33:19.770Z,95.56
2023-01-19T13:38:24.333Z,95.16
2023-01-19T13:43:36.662Z,95.52
2023-01-19T13:48:39.746Z,95.95
2023-01-19T13:53:53.973Z,96.24
2023-01-19T13:59:12.733Z,95.63
2023-01-19T14:04:32.676Z,95.85
2023-01-19T14:09:35.908Z,95.72
2023-01-19T14:14:38.875Z,95.81
2023-01-19T14:19:51.910Z,95.76
2023-01-19T14:24:54.605Z,95.86
2023-01-19T14:30:21.494Z,95.71
2023-01-19T14:35:25.850Z,95.89
2023-01-19T14:40:29.768Z,96.06
2023-01-19T14:45:43.291Z,95.87
2023-01-19T14:51:02.038Z,95.78
2023-01-19T14:56:06.908Z,95.49
2023-01-19T15:01:09.604Z,96.16
2023-01-19T15:06:15.659Z,95.57
2023-01-19T15:11:22.277Z,96.13
2023-01-19T15:16:27.490Z,96.55
2023-01-19T15:21:30.209Z,96.21
2023-01-19T15:26:33.061Z,96.24
2023-01-19T15:31:36.154Z,96.00
2023-01-19T15:36:38.913Z,95.71
2023-01-19T15:41:41.576Z,96.17
2023-01-19T15:46:44.328Z,95.95
2023-01-19T15:51:46.885Z,96.67
2023-01-19T15:56:49.540Z,96.39
2023-01-19T16:01:52.588Z,96.40
2023-01-19T16:06:55.232Z,96.44
2023-01-19T16:11:57.838Z,97.09
2023-01-19T16:17:01.833Z,96.76
2023-01-19T16:22:05.690Z,96.56
2023-01-19T16:27:08.995Z,97.03
2023-01-19T16:32:11.600Z,96.81
2023-01-19T16:37:14.326Z,97.75
2023-01-19T16:42:17.065Z,97.14
2023-01-19T16:47:19.626Z,97.49
2023-01-19T16:52:24.872Z,97.07
2023-01-19T16:57:27.398Z,97.43
2023-01-19T17:02:30.096Z,98.02
2023-01-19T17:07:32.740Z,98.10
2023-01-19T17:12:35.324Z,98.04
2023-01-19T17:17:38.142Z,97.92
2023-01-19T17:22:40.860Z,98.07
2023-01-19T17:27:43.390Z,97.95
2023-01-19T17:32:46.063Z,98.58
2023-01-19T17:37:48.743Z,98.32
2023-01-19T17:42:51.506Z,98.72
2023-01-19T17:47:54.044Z,98.52
2023-01-19T17:52:56.701Z,98.62
2023-01-19T17:58:00.425Z,98.39
2023-01-19T18:03:04.167Z,98.22
2023-01-19T18:08:06.850Z,98.71
2023-01-19T18:13:09.364Z,98.54
2023-01-19T18:18:11.973Z,98.35
2023-01-19T18:23:14.630Z,98.28
2023-01-19T18:28:17.259Z,98.54
2023-01-19T18:33:20.218Z,99.11
2023-01-19T18:38:22.821Z,98.69
2023-01-19T18:43:25.502Z,99.18
2023-01-19T18:48:28.061Z,98.96
2023-01-19T18:53:31.626Z,98.70
2023-01-19T18:58:37.139Z,98.65
2023-01-19T19:03:39.766Z,98.46
2023-01-19T19:08:44.228Z,98.41
2023-01-19T19:13:50.942Z,98.55
2023-01-19T19:18:53.666Z,98.97
2023-01-19T19:23:58.622Z,98.89
2023-01-19T19:29:01.784Z,98.94
2023-01-19T19:34:04.531Z,98.97
2023-01-19T19:39:07.094Z,98.86
2023-01-19T19:44:15.558Z,98.89
2023-01-19T19:49:21.470Z,98.83
2023-01-19T19:54:24.095Z,99.26
2023-01-19T19:59:26.613Z,98.55
2023-01-19T20:04:29.273Z,98.95
2023-01-19T20:09:32.879Z,98.88
2023-01-19T20:14:35.429Z,99.36
2023-01-19T20:19:38.112Z,99.52
2023-01-19T20:24:40.792Z,99.35
2023-01-19T20:29:43.481Z,98.82
2023-01-19T20:34:46.098Z,99.35
2023-01-19T20:39:48.941Z,99.73
2023-01-19T20:44:51.976Z,99.42
2023-01-19T20:49:54.618Z,99.25
2023-01-19T20:54:57.232Z,98.96
2023-01-19T20:59:59.839Z,99.50
2023-01-19T21:05:02.533Z,99.73
2023-01-19T21:10:05.899Z,99.34
2023-01-19T21:15:09.253Z,99.74
2023-01-19T21:20:12.220Z,99.19
2023-01-19T21:25:15.064Z,99.32
2023-01-19T21:30:18.916Z,99.34
2023-01-19T21:35:21.741Z,99.64
2023-01-19T21:40:24.271Z,99.55
2023-01-19T21:45:26.845Z,99.26
2023-01-19T21:50:29.439Z,99.41
2023-01-19T21:55:32.526Z,99.18
2023-01-19T22:00:35.134Z,99.68
2023-01-19T22:05:37.891Z,99.17
2023-01-19T22:10:40.413Z,99.38
2023-01-19T22:15:42.946Z,99.54
2023-01-19T22:20:45.477Z,99.48
2023-01-19T22:25:47.985Z,99.16
2023-01-19T22:30:50.724Z,99.49
2023-01-19T22:35:53.359Z,99.10
2023-01-19T22:40:56.157Z,99.18
2023-01-19T22:45:59.164Z,98.97
2023-01-19T22:51:01.804Z,99.02
2023-01-19T22:56:18.446Z,98.95
2023-01-19T23:01:29.173Z,99.00
2023-01-19T23:06:34.722Z,99.10
2023-01-19T23:11:40.430Z,98.63
2023-01-19T23:16:43.068Z,98.84
2023-01-19T23:21:45.886Z,98.56
2023-01-19T23:26:51.285Z,98.71
2023-01-19T23:31:56.044Z,98.96
2023-01-19T23:36:58.572Z,98.51
2023-01-19T23:42:01.171Z,98.68
2023-01-19T23:47:03.682Z,98.71
2023-01-19T23:52:06.218Z,98.27
2023-01-19T23:57:08.738Z,98.38
